sensor_id;sensor_type;location;lat;lon;timestamp;temperature;humidity
6114;DHT22;3087;48.392;10.836;2023-02-15T00:01:53;2.60;99.90
6114;DHT22;3087;48.392;10.836;2023-02-15T00:04:23;2.40;99.90
6114;DHT22;3087;48.392;10.836;2023-02-15T00:06:50;2.00;99.90
6114;DHT22;3087;48.392;10.836;2023-02-15T00:09:16;1.60;99.90
6114;DHT22;3087;48.392;10.836;2023-02-15T00:11:42;1.50;99.90
6114;DHT22;3087;48.392;10.836;2023-02-15T00:14:13;1.40;99.90
6114;DHT22;3087;48.392;10.836;2023-02-15T00:16:47;1.40;99.90
6114;DHT22;3087;48.392;10.836;2023-02-15T00:19:16;1.40;99.90
6114;DHT22;3087;48.392;10.836;2023-02-15T00:21:42;1.90;99.90
6114;DHT22;3087;48.392;10.836;2023-02-15T00:24:15;1.20;99.90
6114;DHT22;3087;48.392;10.836;2023-02-15T00:26:42;1.20;99.90
6114;DHT22;3087;48.392;10.836;2023-02-15T00:29:10;1.20;99.90
6114;DHT22;3087;48.392;10.836;2023-02-15T00:31:38;1.00;99.90
6114;DHT22;3087;48.392;10.836;2023-02-15T00:34:09;0.90;99.90
6114;DHT22;3087;48.392;10.836;2023-02-15T00:36:37;0.80;99.90
6114;DHT22;3087;48.392;10.836;2023-02-15T00:39:03;0.70;99.90
6114;DHT22;3087;48.392;10.836;2023-02-15T00:41:32;0.50;99.90
6114;DHT22;3087;48.392;10.836;2023-02-15T00:44:01;0.70;99.90
6114;DHT22;3087;48.392;10.836;2023-02-15T00:46:28;0.90;99.90
6114;DHT22;3087;48.392;10.836;2023-02-15T00:48:57;0.90;99.90
6114;DHT22;3087;48.392;10.836;2023-02-15T00:51:24;0.80;99.90
6114;DHT22;3087;48.392;10.836;2023-02-15T00:53:53;0.80;99.90
6114;DHT22;3087;48.392;10.836;2023-02-15T00:56:20;0.70;99.90
6114;DHT22;3087;48.392;10.836;2023-02-15T00:58:48;0.60;99.90
6114;DHT22;3087;48.392;10.836;2023-02-15T01:01:17;0.50;99.90
6114;DHT22;3087;48.392;10.836;2023-02-15T01:03:44;0.50;99.90
6114;DHT22;3087;48.392;10.836;2023-02-15T01:06:23;0.50;99.90
6114;DHT22;3087;48.392;10.836;2023-02-15T01:08:48;0.50;99.90
6114;DHT22;3087;48.392;10.836;2023-02-15T01:11:18;0.50;99.90
6114;DHT22;3087;48.392;10.836;2023-02-15T01:13:54;0.50;99.90
6114;DHT22;3087;48.392;10.836;2023-02-15T01:16:32;-1.00;99.90
6114;DHT22;3087;48.392;10.836;2023-02-15T01:18:59;0.40;99.90
6114;DHT22;3087;48.392;10.836;2023-02-15T01:21:32;0.70;99.90
6114;DHT22;3087;48.392;10.836;2023-02-15T01:24:02;0.90;99.90
6114;DHT22;3087;48.392;10.836;2023-02-15T01:26:30;1.10;99.90
6114;DHT22;3087;48.392;10.836;2023-02-15T01:28:56;1.30;99.90
6114;DHT22;3087;48.392;10.836;2023-02-15T01:31:22;1.50;99.90
6114;DHT22;3087;48.392;10.836;2023-02-15T01:33:49;1.70;99.90
6114;DHT22;3087;48.392;10.836;2023-02-15T01:36:17;1.90;99.90
6114;DHT22;3087;48.392;10.836;2023-02-15T01:38:44;1.70;99.90
6114;DHT22;3087;48.392;10.836;2023-02-15T01:41:20;1.50;99.90
6114;DHT22;3087;48.392;10.836;2023-02-15T01:43:58;1.50;99.90
6114;DHT22;3087;48.392;10.836;2023-02-15T01:46:38;1.50;99.90
6114;DHT22;3087;48.392;10.836;2023-02-15T01:49:27;1.70;99.90
6114;DHT22;3087;48.392;10.836;2023-02-15T01:51:55;1.40;99.90
6114;DHT22;3087;48.392;10.836;2023-02-15T01:54:27;1.10;99.90
6114;DHT22;3087;48.392;10.836;2023-02-15T01:57:00;0.90;99.90
6114;DHT22;3087;48.392;10.836;2023-02-15T01:59:29;0.90;99.90
6114;DHT22;3087;48.392;10.836;2023-02-15T02:01:58;0.80;99.90
6114;DHT22;3087;48.392;10.836;2023-02-15T02:04:39;0.70;99.90
6114;DHT22;3087;48.392;10.836;2023-02-15T02:07:08;0.80;99.90
6114;DHT22;3087;48.392;10.836;2023-02-15T02:09:36;0.80;99.90
6114;DHT22;3087;48.392;10.836;2023-02-15T02:12:02;0.70;99.90
6114;DHT22;3087;48.392;10.836;2023-02-15T02:14:32;0.60;99.90
6114;DHT22;3087;48.392;10.836;2023-02-15T02:17:16;0.60;99.90
6114;DHT22;3087;48.392;10.836;2023-02-15T02:40:05;0.90;99.90
6114;DHT22;3087;48.392;10.836;2023-02-15T02:42:49;0.80;99.90
6114;DHT22;3087;48.392;10.836;2023-02-15T02:48:30;1.00;99.90
6114;DHT22;3087;48.392;10.836;2023-02-15T02:50:58;0.80;99.90
6114;DHT22;3087;48.392;10.836;2023-02-15T02:53:34;0.50;99.90
6114;DHT22;3087;48.392;10.836;2023-02-15T02:56:42;0.30;99.90
6114;DHT22;3087;48.392;10.836;2023-02-15T02:59:23;0.50;99.90
6114;DHT22;3087;48.392;10.836;2023-02-15T03:02:05;0.50;99.90
6114;DHT22;3087;48.392;10.836;2023-02-15T03:04:41;1.50;99.90
6114;DHT22;3087;48.392;10.836;2023-02-15T03:07:13;0.40;99.90
6114;DHT22;3087;48.392;10.836;2023-02-15T03:09:45;0.50;99.90
6114;DHT22;3087;48.392;10.836;2023-02-15T03:12:17;0.50;99.90
6114;DHT22;3087;48.392;10.836;2023-02-15T03:14:53;0.50;99.90
6114;DHT22;3087;48.392;10.836;2023-02-15T03:17:22;0.60;99.90
6114;DHT22;3087;48.392;10.836;2023-02-15T03:19:51;2.30;99.90
6114;DHT22;3087;48.392;10.836;2023-02-15T03:22:25;0.60;99.90
6114;DHT22;3087;48.392;10.836;2023-02-15T03:25:02;0.80;99.90
6114;DHT22;3087;48.392;10.836;2023-02-15T03:27:40;1.10;99.90
6114;DHT22;3087;48.392;10.836;2023-02-15T03:30:09;1.20;99.90
6114;DHT22;3087;48.392;10.836;2023-02-15T03:32:36;1.30;99.90
6114;DHT22;3087;48.392;10.836;2023-02-15T03:35:03;1.00;99.90
6114;DHT22;3087;48.392;10.836;2023-02-15T03:37:36;0.90;99.90
6114;DHT22;3087;48.392;10.836;2023-02-15T03:40:29;0.70;99.90
6114;DHT22;3087;48.392;10.836;2023-02-15T03:43:19;0.60;99.90
6114;DHT22;3087;48.392;10.836;2023-02-15T03:45:49;0.50;99.90
6114;DHT22;3087;48.392;10.836;2023-02-15T03:48:30;0.50;99.90
6114;DHT22;3087;48.392;10.836;2023-02-15T03:51:02;0.50;99.90
6114;DHT22;3087;48.392;10.836;2023-02-15T03:53:49;0.50;99.90
6114;DHT22;3087;48.392;10.836;2023-02-15T03:56:15;0.40;99.90
6114;DHT22;3087;48.392;10.836;2023-02-15T03:58:41;0.20;99.90
6114;DHT22;3087;48.392;10.836;2023-02-15T04:01:37;0.10;99.90
6114;DHT22;3087;48.392;10.836;2023-02-15T04:06:49;0.20;99.90
6114;DHT22;3087;48.392;10.836;2023-02-15T04:09:15;0.60;99.90
6114;DHT22;3087;48.392;10.836;2023-02-15T04:11:59;0.10;99.90
6114;DHT22;3087;48.392;10.836;2023-02-15T04:14:25;0.20;99.90
6114;DHT22;3087;48.392;10.836;2023-02-15T04:17:09;0.20;99.90
6114;DHT22;3087;48.392;10.836;2023-02-15T04:19:35;0.20;99.90
6114;DHT22;3087;48.392;10.836;2023-02-15T04:22:20;0.30;99.90
6114;DHT22;3087;48.392;10.836;2023-02-15T04:25:05;0.10;99.90
6114;DHT22;3087;48.392;10.836;2023-02-15T04:27:42;0.20;99.90
6114;DHT22;3087;48.392;10.836;2023-02-15T04:30:10;0.20;99.90
6114;DHT22;3087;48.392;10.836;2023-02-15T04:32:37;0.20;99.90
6114;DHT22;3087;48.392;10.836;2023-02-15T04:35:03;0.00;99.90
6114;DHT22;3087;48.392;10.836;2023-02-15T04:37:30;-0.10;99.90
6114;DHT22;3087;48.392;10.836;2023-02-15T04:39:56;-0.10;99.90
6114;DHT22;3087;48.392;10.836;2023-02-15T04:42:24;-0.20;99.90
6114;DHT22;3087;48.392;10.836;2023-02-15T04:44:50;-0.20;99.90
6114;DHT22;3087;48.392;10.836;2023-02-15T04:47:16;-0.10;99.90
6114;DHT22;3087;48.392;10.836;2023-02-15T04:49:41;-0.10;99.90
6114;DHT22;3087;48.392;10.836;2023-02-15T04:52:07;-0.20;99.90
6114;DHT22;3087;48.392;10.836;2023-02-15T04:54:32;-0.10;99.90
6114;DHT22;3087;48.392;10.836;2023-02-15T04:56:58;0.00;99.90
6114;DHT22;3087;48.392;10.836;2023-02-15T04:59:24;0.00;99.90
6114;DHT22;3087;48.392;10.836;2023-02-15T05:01:49;0.00;99.90
6114;DHT22;3087;48.392;10.836;2023-02-15T05:04:15;0.20;99.90
6114;DHT22;3087;48.392;10.836;2023-02-15T05:06:41;2.00;99.90
6114;DHT22;3087;48.392;10.836;2023-02-15T05:09:06;0.50;99.90
6114;DHT22;3087;48.392;10.836;2023-02-15T05:11:32;0.50;99.90
6114;DHT22;3087;48.392;10.836;2023-02-15T05:13:57;0.30;99.90
6114;DHT22;3087;48.392;10.836;2023-02-15T05:16:23;0.20;99.90
6114;DHT22;3087;48.392;10.836;2023-02-15T05:18:49;0.10;99.90
6114;DHT22;3087;48.392;10.836;2023-02-15T05:21:14;0.10;99.90
6114;DHT22;3087;48.392;10.836;2023-02-15T05:23:42;1.80;99.90
6114;DHT22;3087;48.392;10.836;2023-02-15T05:26:12;1.00;99.90
6114;DHT22;3087;48.392;10.836;2023-02-15T05:28:59;0.00;99.90
6114;DHT22;3087;48.392;10.836;2023-02-15T05:31:25;-0.20;99.90
6114;DHT22;3087;48.392;10.836;2023-02-15T05:33:50;-0.30;99.90
6114;DHT22;3087;48.392;10.836;2023-02-15T05:36:16;-0.30;99.90
6114;DHT22;3087;48.392;10.836;2023-02-15T05:38:42;-0.40;99.90
6114;DHT22;3087;48.392;10.836;2023-02-15T05:41:08;-0.30;99.90
6114;DHT22;3087;48.392;10.836;2023-02-15T05:43:34;-0.40;99.90
6114;DHT22;3087;48.392;10.836;2023-02-15T05:46:01;-0.40;99.90
6114;DHT22;3087;48.392;10.836;2023-02-15T05:48:27;-0.40;99.90
6114;DHT22;3087;48.392;10.836;2023-02-15T05:51:04;-0.50;99.90
6114;DHT22;3087;48.392;10.836;2023-02-15T05:53:32;-0.50;99.90
6114;DHT22;3087;48.392;10.836;2023-02-15T05:55:58;-0.40;99.90
6114;DHT22;3087;48.392;10.836;2023-02-15T05:58:29;-0.20;99.90
6114;DHT22;3087;48.392;10.836;2023-02-15T06:00:56;-0.20;99.90
6114;DHT22;3087;48.392;10.836;2023-02-15T06:03:22;-0.30;99.90
6114;DHT22;3087;48.392;10.836;2023-02-15T06:05:48;-0.40;99.90
6114;DHT22;3087;48.392;10.836;2023-02-15T06:08:14;0.50;99.90
6114;DHT22;3087;48.392;10.836;2023-02-15T06:10:40;-0.30;99.90
6114;DHT22;3087;48.392;10.836;2023-02-15T06:13:06;-0.30;99.90
6114;DHT22;3087;48.392;10.836;2023-02-15T06:15:32;-0.40;99.90
6114;DHT22;3087;48.392;10.836;2023-02-15T06:17:57;-0.40;99.90
6114;DHT22;3087;48.392;10.836;2023-02-15T06:20:23;-0.40;99.90
6114;DHT22;3087;48.392;10.836;2023-02-15T06:22:48;-0.50;99.90
6114;DHT22;3087;48.392;10.836;2023-02-15T06:25:14;-0.60;99.90
6114;DHT22;3087;48.392;10.836;2023-02-15T06:27:43;-0.60;99.90
6114;DHT22;3087;48.392;10.836;2023-02-15T06:30:10;-0.60;99.90
6114;DHT22;3087;48.392;10.836;2023-02-15T06:32:36;-0.50;99.90
6114;DHT22;3087;48.392;10.836;2023-02-15T06:35:01;-0.50;99.90
6114;DHT22;3087;48.392;10.836;2023-02-15T06:37:27;-0.50;99.90
6114;DHT22;3087;48.392;10.836;2023-02-15T06:39:53;-0.50;99.90
6114;DHT22;3087;48.392;10.836;2023-02-15T06:42:18;-0.50;99.90
6114;DHT22;3087;48.392;10.836;2023-02-15T06:44:44;0.80;99.90
6114;DHT22;3087;48.392;10.836;2023-02-15T06:47:10;-0.50;99.90
6114;DHT22;3087;48.392;10.836;2023-02-15T06:49:36;-0.50;99.90
6114;DHT22;3087;48.392;10.836;2023-02-15T06:52:03;-0.50;99.90
6114;DHT22;3087;48.392;10.836;2023-02-15T06:54:29;-0.50;99.90
6114;DHT22;3087;48.392;10.836;2023-02-15T06:56:54;-0.50;99.90
6114;DHT22;3087;48.392;10.836;2023-02-15T06:59:20;-0.40;99.90
6114;DHT22;3087;48.392;10.836;2023-02-15T07:01:46;-0.40;99.90
6114;DHT22;3087;48.392;10.836;2023-02-15T07:04:11;-0.20;99.90
6114;DHT22;3087;48.392;10.836;2023-02-15T07:06:37;-0.20;99.90
6114;DHT22;3087;48.392;10.836;2023-02-15T07:09:03;-0.30;99.90
6114;DHT22;3087;48.392;10.836;2023-02-15T07:11:30;-0.40;99.90
6114;DHT22;3087;48.392;10.836;2023-02-15T07:14:14;-0.40;99.90
6114;DHT22;3087;48.392;10.836;2023-02-15T07:16:40;-0.50;99.90
6114;DHT22;3087;48.392;10.836;2023-02-15T07:19:06;-0.50;99.90
6114;DHT22;3087;48.392;10.836;2023-02-15T07:21:33;-0.40;99.90
6114;DHT22;3087;48.392;10.836;2023-02-15T07:23:59;-0.40;99.90
6114;DHT22;3087;48.392;10.836;2023-02-15T07:26:25;-0.40;99.90
6114;DHT22;3087;48.392;10.836;2023-02-15T07:28:50;-0.30;99.90
6114;DHT22;3087;48.392;10.836;2023-02-15T07:31:16;-0.30;99.90
6114;DHT22;3087;48.392;10.836;2023-02-15T07:33:42;-0.40;99.90
6114;DHT22;3087;48.392;10.836;2023-02-15T07:36:08;-0.50;99.90
6114;DHT22;3087;48.392;10.836;2023-02-15T07:38:38;-0.50;99.90
6114;DHT22;3087;48.392;10.836;2023-02-15T07:41:09;-0.40;99.90
6114;DHT22;3087;48.392;10.836;2023-02-15T07:43:37;-0.40;99.90
6114;DHT22;3087;48.392;10.836;2023-02-15T07:46:05;-0.40;99.90
6114;DHT22;3087;48.392;10.836;2023-02-15T07:48:33;-0.40;99.90
6114;DHT22;3087;48.392;10.836;2023-02-15T07:51:00;-0.40;99.90
6114;DHT22;3087;48.392;10.836;2023-02-15T07:53:26;-0.30;99.90
6114;DHT22;3087;48.392;10.836;2023-02-15T07:55:52;2.30;99.90
6114;DHT22;3087;48.392;10.836;2023-02-15T07:58:40;-0.30;99.90
6114;DHT22;3087;48.392;10.836;2023-02-15T08:03:47;0.00;99.90
6114;DHT22;3087;48.392;10.836;2023-02-15T08:06:13;0.30;99.90
6114;DHT22;3087;48.392;10.836;2023-02-15T08:08:39;0.40;99.90
6114;DHT22;3087;48.392;10.836;2023-02-15T08:11:17;1.70;99.90
6114;DHT22;3087;48.392;10.836;2023-02-15T08:14:11;0.20;99.90
6114;DHT22;3087;48.392;10.836;2023-02-15T08:16:38;0.50;99.90
6114;DHT22;3087;48.392;10.836;2023-02-15T08:19:06;0.70;99.90
6114;DHT22;3087;48.392;10.836;2023-02-15T08:21:33;0.70;99.90
6114;DHT22;3087;48.392;10.836;2023-02-15T08:23:59;0.70;99.90
6114;DHT22;3087;48.392;10.836;2023-02-15T08:26:32;0.50;99.90
6114;DHT22;3087;48.392;10.836;2023-02-15T08:28:59;1.20;99.90
6114;DHT22;3087;48.392;10.836;2023-02-15T08:31:29;0.60;99.90
6114;DHT22;3087;48.392;10.836;2023-02-15T08:33:56;0.80;99.90
6114;DHT22;3087;48.392;10.836;2023-02-15T08:36:26;0.70;99.90
6114;DHT22;3087;48.392;10.836;2023-02-15T08:38:52;0.60;99.90
6114;DHT22;3087;48.392;10.836;2023-02-15T08:41:26;0.60;99.90
6114;DHT22;3087;48.392;10.836;2023-02-15T08:43:54;0.70;99.90
6114;DHT22;3087;48.392;10.836;2023-02-15T08:46:21;1.00;99.90
6114;DHT22;3087;48.392;10.836;2023-02-15T08:48:47;2.30;99.90
6114;DHT22;3087;48.392;10.836;2023-02-15T08:51:21;0.80;99.90
6114;DHT22;3087;48.392;10.836;2023-02-15T08:53:49;0.70;99.90
6114;DHT22;3087;48.392;10.836;2023-02-15T08:56:17;0.60;99.90
6114;DHT22;3087;48.392;10.836;2023-02-15T08:58:43;0.60;99.90
6114;DHT22;3087;48.392;10.836;2023-02-15T09:01:14;0.60;99.90
6114;DHT22;3087;48.392;10.836;2023-02-15T09:03:44;0.60;99.90
6114;DHT22;3087;48.392;10.836;2023-02-15T09:06:10;0.60;99.90
6114;DHT22;3087;48.392;10.836;2023-02-15T09:08:47;0.70;99.90
6114;DHT22;3087;48.392;10.836;2023-02-15T09:11:22;0.80;99.90
6114;DHT22;3087;48.392;10.836;2023-02-15T09:13:59;0.80;99.90
6114;DHT22;3087;48.392;10.836;2023-02-15T09:16:28;0.90;99.90
6114;DHT22;3087;48.392;10.836;2023-02-15T09:18:55;1.10;99.90
6114;DHT22;3087;48.392;10.836;2023-02-15T09:21:23;1.40;99.90
6114;DHT22;3087;48.392;10.836;2023-02-15T09:23:58;1.60;99.90
6114;DHT22;3087;48.392;10.836;2023-02-15T09:26:26;1.60;99.90
6114;DHT22;3087;48.392;10.836;2023-02-15T09:28:55;1.50;99.90
6114;DHT22;3087;48.392;10.836;2023-02-15T09:31:26;1.30;99.90
6114;DHT22;3087;48.392;10.836;2023-02-15T09:33:53;1.40;99.90
6114;DHT22;3087;48.392;10.836;2023-02-15T09:36:39;1.60;99.90
6114;DHT22;3087;48.392;10.836;2023-02-15T09:56:32;2.20;99.90
6114;DHT22;3087;48.392;10.836;2023-02-15T09:59:04;2.00;99.90
6114;DHT22;3087;48.392;10.836;2023-02-15T10:01:35;1.90;99.90
6114;DHT22;3087;48.392;10.836;2023-02-15T10:04:25;4.60;99.90
6114;DHT22;3087;48.392;10.836;2023-02-15T10:10:36;2.10;99.90
6114;DHT22;3087;48.392;10.836;2023-02-15T10:16:17;2.00;99.90
6114;DHT22;3087;48.392;10.836;2023-02-15T10:26:31;3.00;99.90
6114;DHT22;3087;48.392;10.836;2023-02-15T10:29:22;3.20;99.90
6114;DHT22;3087;48.392;10.836;2023-02-15T10:31:51;3.30;99.90
6114;DHT22;3087;48.392;10.836;2023-02-15T10:34:31;3.70;99.90
6114;DHT22;3087;48.392;10.836;2023-02-15T10:42:46;4.80;99.90
6114;DHT22;3087;48.392;10.836;2023-02-15T10:50:59;4.70;99.90
6114;DHT22;3087;48.392;10.836;2023-02-15T10:53:50;4.60;99.90
6114;DHT22;3087;48.392;10.836;2023-02-15T10:56:24;4.70;99.90
6114;DHT22;3087;48.392;10.836;2023-02-15T10:59:37;5.10;99.90
6114;DHT22;3087;48.392;10.836;2023-02-15T11:05:02;6.60;99.90
6114;DHT22;3087;48.392;10.836;2023-02-15T11:07:41;7.90;99.90
6114;DHT22;3087;48.392;10.836;2023-02-15T11:12:52;8.40;99.90
6114;DHT22;3087;48.392;10.836;2023-02-15T11:18:09;9.10;99.90
6114;DHT22;3087;48.392;10.836;2023-02-15T11:23:28;11.20;99.90
6114;DHT22;3087;48.392;10.836;2023-02-15T11:26:16;11.50;99.90
6114;DHT22;3087;48.392;10.836;2023-02-15T11:28:51;11.20;99.90
6114;DHT22;3087;48.392;10.836;2023-02-15T11:31:21;11.60;99.90
6114;DHT22;3087;48.392;10.836;2023-02-15T11:33:59;11.70;99.90
6114;DHT22;3087;48.392;10.836;2023-02-15T11:36:35;11.90;99.90
6114;DHT22;3087;48.392;10.836;2023-02-15T11:39:09;12.10;99.90
6114;DHT22;3087;48.392;10.836;2023-02-15T11:41:38;12.40;99.90
6114;DHT22;3087;48.392;10.836;2023-02-15T11:44:06;13.40;99.90
6114;DHT22;3087;48.392;10.836;2023-02-15T11:46:34;13.50;99.90
6114;DHT22;3087;48.392;10.836;2023-02-15T11:48:59;13.10;99.90
6114;DHT22;3087;48.392;10.836;2023-02-15T11:51:25;13.00;99.90
6114;DHT22;3087;48.392;10.836;2023-02-15T11:53:53;13.20;99.90
6114;DHT22;3087;48.392;10.836;2023-02-15T11:56:22;13.20;99.90
6114;DHT22;3087;48.392;10.836;2023-02-15T11:59:06;13.50;99.90
6114;DHT22;3087;48.392;10.836;2023-02-15T12:01:42;13.60;99.90
6114;DHT22;3087;48.392;10.836;2023-02-15T12:04:32;14.20;99.90
6114;DHT22;3087;48.392;10.836;2023-02-15T12:07:21;14.90;99.90
6114;DHT22;3087;48.392;10.836;2023-02-15T12:10:05;15.80;99.90
6114;DHT22;3087;48.392;10.836;2023-02-15T12:12:37;16.70;99.90
6114;DHT22;3087;48.392;10.836;2023-02-15T12:15:13;17.30;99.90
6114;DHT22;3087;48.392;10.836;2023-02-15T12:17:52;18.00;99.90
6114;DHT22;3087;48.392;10.836;2023-02-15T12:23:00;16.40;99.90
6114;DHT22;3087;48.392;10.836;2023-02-15T12:25:42;16.10;99.10
6114;DHT22;3087;48.392;10.836;2023-02-15T12:28:25;16.60;99.90
6114;DHT22;3087;48.392;10.836;2023-02-15T12:30:53;17.10;99.90
6114;DHT22;3087;48.392;10.836;2023-02-15T12:38:27;17.90;99.90
6114;DHT22;3087;48.392;10.836;2023-02-15T12:41:05;18.00;99.90
6114;DHT22;3087;48.392;10.836;2023-02-15T12:43:45;18.10;99.90
6114;DHT22;3087;48.392;10.836;2023-02-15T12:46:24;18.20;99.90
6114;DHT22;3087;48.392;10.836;2023-02-15T12:49:06;18.10;99.90
6114;DHT22;3087;48.392;10.836;2023-02-15T12:51:53;17.80;99.90
6114;DHT22;3087;48.392;10.836;2023-02-15T12:54:26;17.50;99.90
6114;DHT22;3087;48.392;10.836;2023-02-15T12:56:53;16.80;99.60
6114;DHT22;3087;48.392;10.836;2023-02-15T12:59:19;16.30;99.90
6114;DHT22;3087;48.392;10.836;2023-02-15T13:01:46;15.90;99.90
6114;DHT22;3087;48.392;10.836;2023-02-15T13:04:22;15.10;99.90
6114;DHT22;3087;48.392;10.836;2023-02-15T13:06:49;14.50;99.90
6114;DHT22;3087;48.392;10.836;2023-02-15T13:09:35;14.20;99.90
6114;DHT22;3087;48.392;10.836;2023-02-15T13:14:46;14.00;99.90
6114;DHT22;3087;48.392;10.836;2023-02-15T13:17:13;14.20;99.90
6114;DHT22;3087;48.392;10.836;2023-02-15T13:19:52;14.40;99.90
6114;DHT22;3087;48.392;10.836;2023-02-15T13:22:40;14.70;99.90
6114;DHT22;3087;48.392;10.836;2023-02-15T13:25:24;15.20;99.90
6114;DHT22;3087;48.392;10.836;2023-02-15T13:27:54;15.40;99.90
6114;DHT22;3087;48.392;10.836;2023-02-15T13:30:30;15.50;99.90
6114;DHT22;3087;48.392;10.836;2023-02-15T13:33:01;15.70;99.90
6114;DHT22;3087;48.392;10.836;2023-02-15T13:35:39;15.80;99.90
6114;DHT22;3087;48.392;10.836;2023-02-15T13:38:16;15.90;99.90
6114;DHT22;3087;48.392;10.836;2023-02-15T13:40:58;15.90;99.90
6114;DHT22;3087;48.392;10.836;2023-02-15T13:44:07;15.90;99.90
6114;DHT22;3087;48.392;10.836;2023-02-15T13:49:39;15.90;99.90
6114;DHT22;3087;48.392;10.836;2023-02-15T13:52:23;15.90;99.90
6114;DHT22;3087;48.392;10.836;2023-02-15T14:00:31;15.90;99.90
6114;DHT22;3087;48.392;10.836;2023-02-15T14:06:56;15.50;99.90
6114;DHT22;3087;48.392;10.836;2023-02-15T14:20:02;12.90;99.90
6114;DHT22;3087;48.392;10.836;2023-02-15T14:22:36;12.50;99.90
6114;DHT22;3087;48.392;10.836;2023-02-15T14:25:25;12.40;99.90
6114;DHT22;3087;48.392;10.836;2023-02-15T14:28:19;12.10;99.90
6114;DHT22;3087;48.392;10.836;2023-02-15T14:30:49;11.80;99.90
6114;DHT22;3087;48.392;10.836;2023-02-15T14:33:34;11.40;99.90
6114;DHT22;3087;48.392;10.836;2023-02-15T14:36:05;11.00;99.90
6114;DHT22;3087;48.392;10.836;2023-02-15T14:41:44;10.50;99.90
6114;DHT22;3087;48.392;10.836;2023-02-15T14:44:40;10.30;99.90
6114;DHT22;3087;48.392;10.836;2023-02-15T14:47:26;10.10;99.90
6114;DHT22;3087;48.392;10.836;2023-02-15T14:49:52;10.00;99.90
6114;DHT22;3087;48.392;10.836;2023-02-15T14:52:17;10.00;99.90
6114;DHT22;3087;48.392;10.836;2023-02-15T15:02:15;9.30;99.90
6114;DHT22;3087;48.392;10.836;2023-02-15T15:07:20;9.20;99.90
6114;DHT22;3087;48.392;10.836;2023-02-15T15:18:00;8.90;99.90
6114;DHT22;3087;48.392;10.836;2023-02-15T15:31:13;8.40;99.90
6114;DHT22;3087;48.392;10.836;2023-02-15T15:34:15;8.30;99.90
6114;DHT22;3087;48.392;10.836;2023-02-15T15:37:18;8.20;99.90
6114;DHT22;3087;48.392;10.836;2023-02-15T15:40:35;8.10;99.90
6114;DHT22;3087;48.392;10.836;2023-02-15T15:46:30;8.30;99.90
6114;DHT22;3087;48.392;10.836;2023-02-15T15:49:02;8.30;99.90
6114;DHT22;3087;48.392;10.836;2023-02-15T15:51:32;8.30;99.90
6114;DHT22;3087;48.392;10.836;2023-02-15T15:54:00;8.20;99.90
6114;DHT22;3087;48.392;10.836;2023-02-15T15:56:36;8.20;99.90
6114;DHT22;3087;48.392;10.836;2023-02-15T15:59:05;8.20;99.90
6114;DHT22;3087;48.392;10.836;2023-02-15T16:01:42;8.40;99.90
6114;DHT22;3087;48.392;10.836;2023-02-15T16:04:13;8.00;99.90
6114;DHT22;3087;48.392;10.836;2023-02-15T16:06:39;7.90;99.90
6114;DHT22;3087;48.392;10.836;2023-02-15T16:09:23;8.30;99.90
6114;DHT22;3087;48.392;10.836;2023-02-15T16:11:55;7.90;99.90
6114;DHT22;3087;48.392;10.836;2023-02-15T16:14:30;7.70;99.90
6114;DHT22;3087;48.392;10.836;2023-02-15T16:16:58;8.00;99.90
6114;DHT22;3087;48.392;10.836;2023-02-15T16:19:30;7.60;99.90
6114;DHT22;3087;48.392;10.836;2023-02-15T16:22:00;7.60;99.90
6114;DHT22;3087;48.392;10.836;2023-02-15T16:24:32;7.50;99.90
6114;DHT22;3087;48.392;10.836;2023-02-15T16:29:53;7.20;99.90
6114;DHT22;3087;48.392;10.836;2023-02-15T16:32:21;7.20;99.90
6114;DHT22;3087;48.392;10.836;2023-02-15T16:34:58;7.10;99.90
6114;DHT22;3087;48.392;10.836;2023-02-15T16:37:26;7.10;99.90
6114;DHT22;3087;48.392;10.836;2023-02-15T16:39:53;7.00;99.90
6114;DHT22;3087;48.392;10.836;2023-02-15T16:42:20;7.10;99.90
6114;DHT22;3087;48.392;10.836;2023-02-15T16:44:59;6.90;99.90
6114;DHT22;3087;48.392;10.836;2023-02-15T16:47:29;6.90;99.90
6114;DHT22;3087;48.392;10.836;2023-02-15T16:50:00;6.70;99.90
6114;DHT22;3087;48.392;10.836;2023-02-15T16:52:28;6.60;99.90
6114;DHT22;3087;48.392;10.836;2023-02-15T16:55:03;6.60;99.90
6114;DHT22;3087;48.392;10.836;2023-02-15T16:57:34;6.50;99.90
6114;DHT22;3087;48.392;10.836;2023-02-15T17:00:06;7.20;99.90
6114;DHT22;3087;48.392;10.836;2023-02-15T17:02:34;6.30;99.90
6114;DHT22;3087;48.392;10.836;2023-02-15T17:05:20;6.30;99.90
6114;DHT22;3087;48.392;10.836;2023-02-15T17:10:40;6.40;99.90
6114;DHT22;3087;48.392;10.836;2023-02-15T17:13:16;6.30;99.90
6114;DHT22;3087;48.392;10.836;2023-02-15T17:15:46;5.80;99.90
6114;DHT22;3087;48.392;10.836;2023-02-15T17:18:31;5.80;99.90
6114;DHT22;3087;48.392;10.836;2023-02-15T17:21:01;5.70;99.90
6114;DHT22;3087;48.392;10.836;2023-02-15T17:23:39;5.60;99.90
6114;DHT22;3087;48.392;10.836;2023-02-15T17:26:24;5.60;99.90
6114;DHT22;3087;48.392;10.836;2023-02-15T17:28:53;5.50;99.90
6114;DHT22;3087;48.392;10.836;2023-02-15T17:31:20;5.60;99.90
6114;DHT22;3087;48.392;10.836;2023-02-15T17:33:47;5.40;99.90
6114;DHT22;3087;48.392;10.836;2023-02-15T17:36:17;5.50;99.90
6114;DHT22;3087;48.392;10.836;2023-02-15T17:39:00;5.60;99.90
6114;DHT22;3087;48.392;10.836;2023-02-15T17:41:32;5.90;99.90
6114;DHT22;3087;48.392;10.836;2023-02-15T17:43:59;5.70;99.90
6114;DHT22;3087;48.392;10.836;2023-02-15T17:46:25;5.50;99.90
6114;DHT22;3087;48.392;10.836;2023-02-15T17:48:53;6.70;99.90
6114;DHT22;3087;48.392;10.836;2023-02-15T17:51:20;6.50;99.90
6114;DHT22;3087;48.392;10.836;2023-02-15T17:53:47;5.50;99.90
6114;DHT22;3087;48.392;10.836;2023-02-15T17:56:35;6.10;99.90
6114;DHT22;3087;48.392;10.836;2023-02-15T17:59:01;5.40;99.90
6114;DHT22;3087;48.392;10.836;2023-02-15T18:01:33;5.50;99.90
6114;DHT22;3087;48.392;10.836;2023-02-15T18:04:17;5.40;99.90
6114;DHT22;3087;48.392;10.836;2023-02-15T18:07:01;5.40;99.90
6114;DHT22;3087;48.392;10.836;2023-02-15T18:09:45;5.40;99.90
6114;DHT22;3087;48.392;10.836;2023-02-15T18:12:34;5.30;99.90
6114;DHT22;3087;48.392;10.836;2023-02-15T18:15:04;5.30;99.90
6114;DHT22;3087;48.392;10.836;2023-02-15T18:17:39;5.30;99.90
6114;DHT22;3087;48.392;10.836;2023-02-15T18:22:43;5.30;99.90
6114;DHT22;3087;48.392;10.836;2023-02-15T18:25:15;6.70;99.90
6114;DHT22;3087;48.392;10.836;2023-02-15T18:27:41;5.20;99.90
6114;DHT22;3087;48.392;10.836;2023-02-15T18:30:07;5.30;99.90
6114;DHT22;3087;48.392;10.836;2023-02-15T18:32:35;5.20;99.90
6114;DHT22;3087;48.392;10.836;2023-02-15T18:35:02;5.20;99.90
6114;DHT22;3087;48.392;10.836;2023-02-15T18:37:30;5.10;99.90
6114;DHT22;3087;48.392;10.836;2023-02-15T18:40:00;6.30;99.90
6114;DHT22;3087;48.392;10.836;2023-02-15T18:42:32;5.10;99.90
6114;DHT22;3087;48.392;10.836;2023-02-15T18:45:24;5.10;99.90
6114;DHT22;3087;48.392;10.836;2023-02-15T18:47:51;5.00;99.90
6114;DHT22;3087;48.392;10.836;2023-02-15T18:50:19;4.90;99.90
6114;DHT22;3087;48.392;10.836;2023-02-15T18:52:46;4.90;99.90
6114;DHT22;3087;48.392;10.836;2023-02-15T18:55:23;4.90;99.90
6114;DHT22;3087;48.392;10.836;2023-02-15T18:57:51;4.80;99.90
6114;DHT22;3087;48.392;10.836;2023-02-15T19:00:20;4.80;99.90
6114;DHT22;3087;48.392;10.836;2023-02-15T19:02:46;4.60;99.90
6114;DHT22;3087;48.392;10.836;2023-02-15T19:05:13;4.50;99.90
6114;DHT22;3087;48.392;10.836;2023-02-15T19:07:40;4.50;99.90
6114;DHT22;3087;48.392;10.836;2023-02-15T19:10:16;4.50;99.90